createdAt,value
2023-06-19T00:01:18.678Z,31.80
2023-06-19T00:03:47.784Z,31.80
2023-06-19T00:06:15.458Z,31.80
2023-06-19T00:08:43.636Z,31.80
2023-06-19T00:11:11.358Z,31.80
2023-06-19T00:13:39.232Z,31.80
2023-06-19T00:16:06.916Z,31.80
2023-06-19T00:18:40.768Z,31.70
2023-06-19T00:21:10.354Z,31.70
2023-06-19T00:23:38.067Z,31.70
2023-06-19T00:26:06.106Z,31.70
2023-06-19T00:28:33.805Z,31.70
2023-06-19T00:31:01.488Z,31.70
2023-06-19T00:33:30.368Z,31.70
2023-06-19T00:35:58.098Z,31.70
2023-06-19T00:38:27.219Z,31.70
2023-06-19T00:40:54.896Z,31.70
2023-06-19T00:43:22.571Z,31.70
2023-06-19T00:45:50.307Z,31.70
2023-06-19T00:48:18.253Z,31.70
2023-06-19T00:50:46.170Z,31.70
2023-06-19T00:53:14.343Z,31.70
2023-06-19T00:55:44.436Z,31.70
2023-06-19T00:58:12.278Z,31.70
2023-06-19T01:00:39.992Z,31.70
2023-06-19T01:03:07.786Z,31.70
2023-06-19T01:05:35.614Z,31.70
2023-06-19T01:08:11.137Z,31.70
2023-06-19T01:10:42.414Z,31.70
2023-06-19T01:13:18.161Z,31.70
2023-06-19T01:15:46.536Z,31.70
2023-06-19T01:18:14.836Z,31.70
2023-06-19T01:20:43.101Z,31.70
2023-06-19T01:23:13.345Z,31.70
2023-06-19T01:25:41.464Z,31.60
2023-06-19T01:28:13.202Z,31.60
2023-06-19T01:30:43.917Z,31.60
2023-06-19T01:33:17.854Z,31.60
2023-06-19T01:35:48.912Z,31.60
2023-06-19T01:38:19.060Z,31.60
2023-06-19T01:40:47.598Z,31.60
2023-06-19T01:43:15.406Z,31.60
2023-06-19T01:45:43.410Z,31.60
2023-06-19T01:48:11.279Z,31.60
2023-06-19T01:50:39.005Z,31.60
2023-06-19T01:53:06.688Z,31.60
2023-06-19T01:55:35.803Z,31.60
2023-06-19T01:58:03.503Z,31.60
2023-06-19T02:00:31.666Z,31.60
2023-06-19T02:02:59.484Z,31.60
2023-06-19T02:05:27.204Z,31.60
2023-06-19T02:07:55.186Z,31.60
2023-06-19T02:10:23.209Z,31.60
2023-06-19T02:12:52.453Z,31.60
2023-06-19T02:15:20.139Z,31.60
2023-06-19T02:17:48.667Z,31.60
2023-06-19T02:20:16.599Z,31.60
2023-06-19T02:22:44.251Z,31.60
2023-06-19T02:25:11.903Z,31.60
2023-06-19T02:27:39.597Z,31.60
2023-06-19T02:30:09.913Z,31.60
2023-06-19T02:32:37.684Z,31.60
2023-06-19T02:35:06.870Z,31.60
2023-06-19T02:37:37.102Z,31.50
2023-06-19T02:40:06.164Z,31.50
2023-06-19T02:42:34.016Z,31.50
2023-06-19T02:45:04.383Z,31.50
2023-06-19T02:47:34.032Z,31.60
2023-06-19T02:50:04.250Z,31.50
2023-06-19T02:52:32.092Z,31.50
2023-06-19T02:55:00.247Z,31.60
2023-06-19T02:57:28.207Z,31.50
2023-06-19T02:59:55.892Z,31.50
2023-06-19T03:02:23.633Z,31.50
2023-06-19T03:04:54.354Z,31.50
2023-06-19T03:07:22.057Z,31.50
2023-06-19T03:09:49.698Z,31.50
2023-06-19T03:12:17.316Z,31.50
2023-06-19T03:14:45.036Z,31.50
2023-06-19T03:17:12.889Z,31.50
2023-06-19T03:19:40.597Z,31.50
2023-06-19T03:22:09.658Z,31.50
2023-06-19T03:24:37.402Z,31.50
2023-06-19T03:27:05.605Z,31.50
2023-06-19T03:29:33.363Z,31.50
2023-06-19T03:32:01.080Z,31.50
2023-06-19T03:34:28.767Z,31.50
2023-06-19T03:36:56.451Z,31.50
2023-06-19T03:39:25.691Z,31.50
2023-06-19T03:41:53.417Z,31.50
2023-06-19T03:44:21.087Z,31.50
2023-06-19T03:46:49.336Z,31.50
2023-06-19T03:49:17.191Z,31.50
2023-06-19T03:51:45.234Z,31.40
2023-06-19T03:54:12.903Z,31.50
2023-06-19T03:56:41.924Z,31.50
2023-06-19T03:59:09.634Z,31.50
2023-06-19T04:01:37.334Z,31.40
2023-06-19T04:04:05.243Z,31.40
2023-06-19T04:06:32.942Z,31.40
2023-06-19T04:09:00.573Z,31.40
2023-06-19T04:11:28.296Z,31.40
2023-06-19T04:13:57.304Z,31.40
2023-06-19T04:16:25.019Z,31.40
2023-06-19T04:18:52.727Z,31.40
2023-06-19T04:21:20.423Z,31.40
2023-06-19T04:23:48.094Z,31.40
2023-06-19T04:26:15.965Z,31.40
2023-06-19T04:28:44.224Z,31.40
2023-06-19T04:31:13.281Z,31.40
2023-06-19T04:33:43.061Z,31.40
2023-06-19T04:36:11.077Z,31.40
2023-06-19T04:38:38.928Z,31.40
2023-06-19T04:41:06.575Z,31.40
2023-06-19T04:43:35.162Z,31.40
2023-06-19T04:46:04.858Z,31.40
2023-06-19T04:48:36.696Z,31.40
2023-06-19T04:51:04.691Z,31.40
2023-06-19T04:53:32.422Z,31.40
2023-06-19T04:56:02.470Z,31.40
2023-06-19T04:58:30.857Z,31.40
2023-06-19T05:00:58.864Z,31.40
2023-06-19T05:03:26.715Z,31.40
2023-06-19T05:05:55.909Z,31.40
2023-06-19T05:08:23.584Z,31.40
2023-06-19T05:10:51.276Z,31.40
2023-06-19T05:13:19.876Z,31.40
2023-06-19T05:15:47.762Z,31.40
2023-06-19T05:18:16.234Z,31.40
2023-06-19T05:20:44.096Z,31.40
2023-06-19T05:23:13.412Z,31.40
2023-06-19T05:25:41.160Z,31.40
2023-06-19T05:28:08.825Z,31.40
2023-06-19T05:30:37.023Z,31.40
2023-06-19T05:33:04.948Z,31.40
2023-06-19T05:35:33.068Z,31.40
2023-06-19T05:38:32.012Z,31.40
2023-06-19T05:40:59.826Z,31.40
2023-06-19T05:43:27.881Z,31.40
2023-06-19T05:45:57.052Z,31.40
2023-06-19T05:48:26.236Z,31.40
2023-06-19T05:50:54.241Z,31.40
2023-06-19T05:53:22.019Z,31.40
2023-06-19T05:55:51.152Z,31.40
2023-06-19T05:58:21.198Z,31.40
2023-06-19T06:00:49.536Z,31.40
2023-06-19T06:03:17.421Z,31.40
2023-06-19T06:05:49.913Z,31.40
2023-06-19T06:08:17.814Z,31.40
2023-06-19T06:10:45.805Z,31.40
2023-06-19T06:13:14.876Z,31.40
2023-06-19T06:15:42.605Z,31.40
2023-06-19T06:18:10.378Z,31.40
2023-06-19T06:20:38.143Z,31.40
2023-06-19T06:23:06.443Z,31.40
2023-06-19T06:25:34.328Z,31.40
2023-06-19T06:28:02.121Z,31.40
2023-06-19T06:30:31.295Z,31.40
2023-06-19T06:32:59.341Z,31.40
2023-06-19T06:35:27.533Z,31.40
2023-06-19T06:37:55.389Z,31.40
2023-06-19T06:40:23.865Z,31.40
2023-06-19T06:42:51.655Z,31.40
2023-06-19T06:45:19.528Z,31.40
2023-06-19T06:47:48.695Z,31.40
2023-06-19T06:50:16.541Z,31.40
2023-06-19T06:52:44.275Z,31.40
2023-06-19T06:55:12.204Z,31.40
2023-06-19T06:57:39.980Z,31.40
2023-06-19T07:00:11.048Z,31.40
2023-06-19T07:02:40.506Z,31.50
2023-06-19T07:05:11.164Z,31.50
2023-06-19T07:07:39.106Z,31.50
2023-06-19T07:10:07.984Z,31.50
2023-06-19T07:12:35.717Z,31.50
2023-06-19T07:15:03.431Z,31.50
2023-06-19T07:17:31.310Z,31.50
2023-06-19T07:19:58.974Z,31.50
2023-06-19T07:22:28.230Z,31.50
2023-06-19T07:24:55.954Z,31.50
2023-06-19T07:27:23.893Z,31.50
2023-06-19T07:29:51.861Z,31.50
2023-06-19T07:32:19.622Z,31.50
2023-06-19T07:34:48.211Z,31.50
2023-06-19T07:37:18.749Z,31.50
2023-06-19T07:39:47.933Z,31.50
2023-06-19T07:42:16.528Z,31.50
2023-06-19T07:44:44.538Z,31.50
2023-06-19T07:47:12.477Z,31.50
2023-06-19T07:49:40.284Z,31.50
2023-06-19T07:52:10.938Z,31.50
2023-06-19T07:54:39.389Z,31.50
2023-06-19T07:57:09.170Z,31.50
2023-06-19T07:59:37.367Z,31.50
2023-06-19T08:02:05.263Z,31.50
2023-06-19T08:04:34.763Z,31.50
2023-06-19T08:07:02.791Z,31.50
2023-06-19T08:09:30.532Z,31.50
2023-06-19T08:11:59.288Z,31.50
2023-06-19T08:14:28.485Z,31.50
2023-06-19T08:16:56.794Z,31.60
2023-06-19T08:19:24.637Z,31.50
2023-06-19T08:21:53.078Z,31.50
2023-06-19T08:24:20.864Z,31.60
2023-06-19T08:26:52.002Z,31.50
2023-06-19T08:29:20.011Z,31.60
2023-06-19T08:31:49.084Z,31.60
2023-06-19T08:34:17.073Z,31.60
2023-06-19T08:36:44.903Z,31.60
2023-06-19T08:39:12.694Z,31.60
2023-06-19T08:41:42.252Z,31.60
2023-06-19T08:44:10.935Z,31.60
2023-06-19T08:46:39.365Z,31.60
2023-06-19T08:49:11.761Z,31.60
2023-06-19T08:51:40.143Z,31.60
2023-06-19T08:54:09.631Z,31.60
2023-06-19T08:56:38.789Z,31.60
2023-06-19T08:59:14.251Z,31.60
2023-06-19T09:01:42.196Z,31.60
2023-06-19T09:04:12.779Z,31.60
2023-06-19T09:06:51.800Z,31.60
2023-06-19T09:09:21.592Z,31.60
2023-06-19T09:11:59.668Z,31.60
2023-06-19T09:14:34.466Z,31.60
2023-06-19T09:17:03.664Z,31.60
2023-06-19T09:19:35.833Z,31.60
2023-06-19T09:22:04.492Z,31.60
2023-06-19T09:24:36.942Z,31.60
2023-06-19T09:27:09.911Z,31.60
2023-06-19T09:29:39.722Z,31.60
2023-06-19T09:32:26.079Z,31.60
2023-06-19T09:34:56.584Z,31.60
2023-06-19T09:37:26.193Z,31.60
2023-06-19T09:39:55.029Z,31.60
2023-06-19T09:42:28.375Z,31.60
2023-06-19T09:45:00.540Z,31.60
2023-06-19T09:47:32.968Z,31.60
2023-06-19T09:50:04.154Z,31.60
2023-06-19T09:52:32.244Z,31.60
2023-06-19T09:55:03.761Z,31.60
2023-06-19T09:57:32.174Z,31.70
2023-06-19T10:00:06.944Z,31.70
2023-06-19T10:02:34.737Z,31.70
2023-06-19T10:05:04.132Z,31.70
2023-06-19T10:07:36.014Z,31.70
2023-06-19T10:10:07.338Z,31.70
2023-06-19T10:12:43.128Z,31.70
2023-06-19T10:15:16.965Z,31.70
2023-06-19T10:17:49.777Z,31.70
2023-06-19T10:20:25.547Z,31.70
2023-06-19T10:22:54.949Z,31.70
2023-06-19T10:25:24.540Z,31.70
2023-06-19T10:27:54.158Z,31.70
2023-06-19T10:30:22.309Z,31.70
2023-06-19T10:32:50.913Z,31.70
2023-06-19T10:35:22.469Z,31.70
2023-06-19T10:37:51.703Z,31.70
2023-06-19T10:40:19.833Z,31.70
2023-06-19T10:42:48.208Z,31.70
2023-06-19T10:45:21.861Z,31.80
2023-06-19T10:47:50.242Z,31.80
2023-06-19T10:50:17.998Z,31.80
2023-06-19T10:52:46.584Z,31.80
2023-06-19T10:55:16.502Z,31.80
2023-06-19T10:57:47.482Z,31.80
2023-06-19T11:00:25.342Z,31.80
2023-06-19T11:02:53.605Z,31.80
2023-06-19T11:05:25.250Z,31.80
2023-06-19T11:07:54.309Z,31.80
2023-06-19T11:10:25.189Z,31.80
2023-06-19T11:12:56.367Z,31.80
2023-06-19T11:15:30.912Z,31.80
2023-06-19T11:17:59.264Z,31.80
2023-06-19T11:20:27.559Z,31.80
2023-06-19T11:23:00.157Z,31.80
2023-06-19T11:25:38.344Z,31.80
2023-06-19T11:28:06.418Z,31.90
2023-06-19T11:30:36.651Z,31.80
2023-06-19T11:33:04.514Z,31.90
2023-06-19T11:35:37.379Z,31.90
2023-06-19T11:38:05.446Z,31.90
2023-06-19T11:40:42.839Z,31.90
2023-06-19T11:43:11.004Z,31.90
2023-06-19T11:45:48.483Z,31.90
2023-06-19T11:48:16.465Z,31.90
2023-06-19T11:50:44.184Z,31.90
2023-06-19T11:53:12.007Z,31.90
2023-06-19T11:55:39.820Z,31.90
2023-06-19T11:58:09.055Z,31.90
2023-06-19T12:00:38.537Z,31.90
2023-06-19T12:03:06.687Z,31.90
2023-06-19T12:05:34.487Z,31.90
2023-06-19T12:08:03.850Z,31.90
2023-06-19T12:10:31.601Z,31.90
2023-06-19T12:12:59.392Z,31.90
2023-06-19T12:15:29.060Z,31.90
2023-06-19T12:17:59.167Z,31.90
2023-06-19T12:20:28.783Z,32.00
2023-06-19T12:22:57.222Z,32.00
2023-06-19T12:25:24.965Z,32.00
2023-06-19T12:27:55.407Z,32.00
2023-06-19T12:30:24.902Z,32.00
2023-06-19T12:32:54.554Z,32.00
2023-06-19T12:35:24.247Z,32.00
2023-06-19T12:37:52.016Z,32.00
2023-06-19T12:40:19.774Z,32.00
2023-06-19T12:42:47.979Z,32.00
2023-06-19T12:45:15.959Z,32.00
2023-06-19T12:47:43.949Z,32.00
2023-06-19T12:50:13.407Z,32.00
2023-06-19T12:52:41.257Z,32.00
2023-06-19T12:55:10.040Z,32.00
2023-06-19T12:57:38.191Z,32.00
2023-06-19T13:00:09.089Z,32.00
2023-06-19T13:02:36.920Z,32.00
2023-06-19T13:05:04.766Z,32.00
2023-06-19T13:07:33.774Z,32.00
2023-06-19T13:10:01.584Z,32.00
2023-06-19T13:12:29.244Z,32.00
2023-06-19T13:14:56.936Z,32.00
2023-06-19T13:17:24.935Z,32.00
2023-06-19T13:19:52.681Z,32.00
2023-06-19T13:22:22.356Z,32.00
2023-06-19T13:24:53.919Z,32.10
2023-06-19T13:27:21.733Z,32.10
2023-06-19T13:29:49.476Z,32.10
2023-06-19T13:32:17.312Z,32.10
2023-06-19T13:34:45.110Z,32.10
2023-06-19T13:37:12.825Z,32.10
2023-06-19T13:39:41.681Z,32.10
2023-06-19T13:42:12.401Z,32.10
2023-06-19T13:44:40.464Z,32.10
2023-06-19T13:47:09.113Z,32.10
2023-06-19T13:49:36.915Z,32.10
2023-06-19T13:52:04.990Z,32.10
2023-06-19T13:54:32.715Z,32.10
2023-06-19T13:57:00.562Z,32.10
2023-06-19T13:59:29.708Z,32.10
2023-06-19T14:01:57.490Z,32.10
2023-06-19T14:04:25.173Z,32.10
2023-06-19T14:06:52.865Z,32.10
2023-06-19T14:09:20.599Z,32.10
2023-06-19T14:11:48.365Z,32.10
2023-06-19T14:14:16.191Z,32.10
2023-06-19T14:16:45.315Z,32.10
2023-06-19T14:19:13.153Z,32.10
2023-06-19T14:21:40.833Z,32.10
2023-06-19T14:24:08.654Z,32.10
2023-06-19T14:26:36.485Z,32.10
2023-06-19T14:29:04.253Z,32.20
2023-06-19T14:31:31.934Z,32.20
2023-06-19T14:34:00.985Z,32.20
2023-06-19T14:36:30.106Z,32.20
2023-06-19T14:38:57.854Z,32.20
2023-06-19T14:41:25.680Z,32.20
2023-06-19T14:43:53.534Z,32.20
2023-06-19T14:46:37.305Z,32.20
2023-06-19T14:49:08.479Z,32.20
2023-06-19T14:51:36.345Z,32.20
2023-06-19T14:54:04.537Z,32.20
2023-06-19T14:56:32.410Z,32.20
2023-06-19T14:59:00.226Z,32.20
2023-06-19T15:01:28.192Z,32.20
2023-06-19T15:03:56.081Z,32.20
2023-06-19T15:06:25.182Z,32.20
2023-06-19T15:08:53.026Z,32.20
2023-06-19T15:11:20.760Z,32.20
2023-06-19T15:13:48.562Z,32.20
2023-06-19T15:16:16.280Z,32.20
2023-06-19T15:18:45.275Z,32.20
2023-06-19T15:21:12.946Z,32.20
2023-06-19T15:23:42.090Z,32.20
2023-06-19T15:26:09.831Z,32.20
2023-06-19T15:28:37.854Z,32.20
2023-06-19T15:31:05.699Z,32.20
2023-06-19T15:33:33.719Z,32.20
2023-06-19T15:36:01.410Z,32.20
2023-06-19T15:38:29.104Z,32.20
2023-06-19T15:40:58.820Z,32.20
2023-06-19T15:43:29.673Z,32.20
2023-06-19T15:45:57.737Z,32.20
2023-06-19T15:48:26.338Z,32.20
2023-06-19T15:50:54.147Z,32.20
2023-06-19T15:53:21.858Z,32.20
2023-06-19T15:55:49.666Z,32.30
2023-06-19T15:58:18.824Z,32.20
2023-06-19T16:00:49.141Z,32.30
2023-06-19T16:03:17.115Z,32.20
2023-06-19T16:06:01.799Z,32.30
2023-06-19T16:08:34.602Z,32.30
2023-06-19T16:11:04.351Z,32.20
2023-06-19T16:13:33.557Z,32.30
2023-06-19T16:16:02.022Z,32.30
2023-06-19T16:18:29.742Z,32.30
2023-06-19T16:20:57.535Z,32.30
2023-06-19T16:23:25.848Z,32.30
2023-06-19T16:25:53.715Z,32.30
2023-06-19T16:28:21.585Z,32.30
2023-06-19T16:30:50.613Z,32.30
2023-06-19T16:33:18.756Z,32.30
2023-06-19T16:35:46.838Z,32.30
2023-06-19T16:38:14.567Z,32.30
2023-06-19T16:40:42.288Z,32.30
2023-06-19T16:43:11.592Z,32.30
2023-06-19T16:45:39.386Z,32.30
2023-06-19T16:48:08.475Z,32.30
2023-06-19T16:50:36.523Z,32.30
2023-06-19T16:53:06.999Z,32.30
2023-06-19T16:55:34.915Z,32.30
2023-06-19T16:58:03.456Z,32.30
2023-06-19T17:00:32.369Z,32.30
2023-06-19T17:03:00.659Z,32.30
2023-06-19T17:05:29.794Z,32.30
2023-06-19T17:07:57.491Z,32.30
2023-06-19T17:10:25.556Z,32.30
2023-06-19T17:12:53.503Z,32.30
2023-06-19T17:15:21.263Z,32.30
2023-06-19T17:17:48.991Z,32.30
2023-06-19T17:20:16.823Z,32.30
2023-06-19T17:22:46.043Z,32.30
2023-06-19T17:25:13.759Z,32.30
2023-06-19T17:27:41.523Z,32.30
2023-06-19T17:30:11.574Z,32.30
2023-06-19T17:32:39.363Z,32.30
2023-06-19T17:35:10.403Z,32.30
2023-06-19T17:37:38.680Z,32.30
2023-06-19T17:40:11.426Z,32.30
2023-06-19T17:42:39.254Z,32.30
2023-06-19T17:45:08.165Z,32.30
2023-06-19T17:47:36.066Z,32.40
2023-06-19T17:50:03.925Z,32.40
2023-06-19T17:52:32.014Z,32.40
2023-06-19T17:54:59.741Z,32.40
2023-06-19T17:57:28.777Z,32.40
2023-06-19T17:59:56.530Z,32.40
2023-06-19T18:02:24.754Z,32.40
2023-06-19T18:04:52.791Z,32.40
2023-06-19T18:07:20.615Z,32.40
2023-06-19T18:09:48.662Z,32.40
2023-06-19T18:12:18.214Z,32.40
2023-06-19T18:14:47.331Z,32.40
2023-06-19T18:17:16.394Z,32.40
2023-06-19T18:19:44.261Z,32.40
2023-06-19T18:22:12.323Z,32.40
2023-06-19T18:24:40.120Z,32.40
2023-06-19T18:27:08.813Z,32.40
2023-06-19T18:29:36.851Z,32.40
2023-06-19T18:32:06.826Z,32.40
2023-06-19T18:34:34.585Z,32.40
2023-06-19T18:37:02.320Z,32.40
2023-06-19T18:39:30.333Z,32.40
2023-06-19T18:41:58.098Z,32.40
2023-06-19T18:44:25.794Z,32.40
2023-06-19T18:46:53.539Z,32.40
2023-06-19T18:49:22.776Z,32.40
2023-06-19T18:51:50.575Z,32.40
2023-06-19T18:54:18.361Z,32.40
2023-06-19T18:56:46.229Z,32.40
2023-06-19T18:59:14.251Z,32.40
2023-06-19T19:01:42.085Z,32.40
2023-06-19T19:04:09.979Z,32.40
2023-06-19T19:06:39.060Z,32.40
2023-06-19T19:09:08.170Z,32.40
2023-06-19T19:11:35.927Z,32.40
2023-06-19T19:14:03.672Z,32.40
2023-06-19T19:16:31.557Z,32.40
2023-06-19T19:18:59.366Z,32.40
2023-06-19T19:21:27.091Z,32.40
2023-06-19T19:23:56.304Z,32.40
2023-06-19T19:26:24.308Z,32.40
2023-06-19T19:28:52.066Z,32.40
2023-06-19T19:31:19.888Z,32.40
2023-06-19T19:33:47.686Z,32.40
2023-06-19T19:36:15.761Z,32.40
2023-06-19T19:38:43.805Z,32.40
2023-06-19T19:41:13.021Z,32.40
2023-06-19T19:43:40.788Z,32.40
2023-06-19T19:46:08.608Z,32.40
2023-06-19T19:48:36.343Z,32.40
2023-06-19T19:51:04.376Z,32.40
2023-06-19T19:53:32.131Z,32.40
2023-06-19T19:56:00.123Z,32.40
2023-06-19T19:58:29.195Z,32.40
2023-06-19T20:00:56.975Z,32.40
2023-06-19T20:03:24.780Z,32.40
2023-06-19T20:05:52.536Z,32.40
2023-06-19T20:08:20.367Z,32.40
2023-06-19T20:10:48.143Z,32.40
2023-06-19T20:13:16.079Z,32.40
2023-06-19T20:15:47.813Z,32.40
2023-06-19T20:18:15.919Z,32.40
2023-06-19T20:20:43.642Z,32.40
2023-06-19T20:23:11.361Z,32.40
2023-06-19T20:25:39.169Z,32.40
2023-06-19T20:28:08.562Z,32.50
2023-06-19T20:30:36.950Z,32.40
2023-06-19T20:33:06.260Z,32.40
2023-06-19T20:35:34.476Z,32.50
2023-06-19T20:38:02.176Z,32.40
2023-06-19T20:40:30.106Z,32.40
2023-06-19T20:42:57.874Z,32.50
2023-06-19T20:45:27.622Z,32.40
2023-06-19T20:47:55.791Z,32.40
2023-06-19T20:50:25.722Z,32.50
2023-06-19T20:52:54.020Z,32.40
2023-06-19T20:55:21.906Z,32.40
2023-06-19T20:57:50.111Z,32.40
2023-06-19T21:00:18.413Z,32.50
2023-06-19T21:02:46.284Z,32.50
2023-06-19T21:05:16.528Z,32.50
2023-06-19T21:07:47.087Z,32.50
2023-06-19T21:10:15.166Z,32.50
2023-06-19T21:12:43.320Z,32.40
2023-06-19T21:15:11.948Z,32.40
2023-06-19T21:17:39.761Z,32.50
2023-06-19T21:20:10.530Z,32.50
2023-06-19T21:22:38.699Z,32.40
2023-06-19T21:25:08.853Z,32.50
2023-06-19T21:27:36.918Z,32.50
2023-06-19T21:30:05.347Z,32.50
2023-06-19T21:32:33.139Z,32.50
2023-06-19T21:35:00.864Z,32.50
2023-06-19T21:37:29.729Z,32.50
2023-06-19T21:39:57.463Z,32.50
2023-06-19T21:42:26.760Z,32.50
2023-06-19T21:44:54.416Z,32.50
2023-06-19T21:47:22.378Z,32.50
2023-06-19T21:49:50.166Z,32.50
2023-06-19T21:52:18.134Z,32.50
2023-06-19T21:54:45.965Z,32.50
2023-06-19T21:57:13.690Z,32.50
2023-06-19T21:59:42.892Z,32.50
2023-06-19T22:02:11.866Z,32.50
2023-06-19T22:04:39.627Z,32.50
2023-06-19T22:07:07.781Z,32.50
2023-06-19T22:09:35.453Z,32.50
2023-06-19T22:12:03.522Z,32.50
2023-06-19T22:14:31.236Z,32.50
2023-06-19T22:17:00.225Z,32.50
2023-06-19T22:19:27.911Z,32.50
2023-06-19T22:21:55.677Z,32.50
2023-06-19T22:24:23.714Z,32.50
2023-06-19T22:26:51.514Z,32.50
2023-06-19T22:29:19.285Z,32.50
2023-06-19T22:31:47.216Z,32.50
2023-06-19T22:34:16.838Z,32.50
2023-06-19T22:36:44.530Z,32.50
2023-06-19T22:39:12.402Z,32.50
2023-06-19T22:41:40.873Z,32.50
2023-06-19T22:44:08.717Z,32.60
2023-06-19T22:46:36.629Z,32.50
2023-06-19T22:49:04.979Z,32.50
2023-06-19T22:51:36.345Z,32.50
2023-06-19T22:54:04.132Z,32.50
2023-06-19T22:56:31.891Z,32.50
2023-06-19T22:58:59.581Z,32.50
2023-06-19T23:01:31.411Z,32.60
2023-06-19T23:03:59.284Z,32.60
2023-06-19T23:06:27.740Z,32.60
2023-06-19T23:08:56.889Z,32.60
2023-06-19T23:11:24.614Z,32.60
2023-06-19T23:13:52.261Z,32.60
2023-06-19T23:16:19.928Z,32.60
2023-06-19T23:18:47.891Z,32.60
2023-06-19T23:21:17.398Z,32.60
2023-06-19T23:23:48.056Z,32.60
2023-06-19T23:26:24.744Z,32.60
2023-06-19T23:28:52.730Z,32.60
2023-06-19T23:31:22.281Z,32.60
2023-06-19T23:33:51.942Z,32.60
2023-06-19T23:36:19.731Z,32.60
2023-06-19T23:38:49.151Z,32.60
2023-06-19T23:41:19.593Z,32.60
2023-06-19T23:43:47.286Z,32.60
2023-06-19T23:46:15.863Z,32.60
2023-06-19T23:48:43.604Z,32.60
2023-06-19T23:51:11.275Z,32.60
2023-06-19T23:53:39.005Z,32.60
2023-06-19T23:56:06.705Z,32.60
2023-06-19T23:58:35.962Z,32.60
